MQT52H LIMC-EDDG
Flight info
| Callsign | MQT52H |
|---|---|
| Flight time | N/A |
| Altitude | 34000 |
| Route | PEPAG DCT CANNE Z651 ZUE T163 KOVAN Y712 LBU N851 RIMKI Z99 LOHRE Z850 HMM HMM1A |
| Aircraft | B739/M-SDE2E3FGHIRWXY/LB1 |
Departure
| Time | N/A |
|---|---|
| Airport | Milan Malpensa International Airport (LIMC) |
Arrival
| Time | 2026-04-30 21:25 |
|---|---|
| Airport | Münster Osnabrück Airport (EDDG) |
| Time | Latitude | Longitude | Altitude | Speed | Heading |
|---|---|---|---|---|---|
| 2026-04-30 20:26 | 46.48593 | 8.86499 | 25691 ft | 439 kts | 347° |
| 2026-04-30 20:26 | 46.54497 | 8.84045 | 26375 ft | 443 kts | 347° |
| 2026-04-30 20:26 | 46.57466 | 8.82808 | 26727 ft | 444 kts | 347° |
| 2026-04-30 20:27 | 46.63499 | 8.80870 | 27386 ft | 445 kts | 357° |
| 2026-04-30 20:27 | 46.69638 | 8.80045 | 28046 ft | 447 kts | 358° |
| 2026-04-30 20:28 | 46.75859 | 8.79191 | 29001 ft | 444 kts | 357° |
| 2026-04-30 20:28 | 46.81982 | 8.78273 | 29987 ft | 440 kts | 357° |
| 2026-04-30 20:29 | 46.88073 | 8.77345 | 30627 ft | 440 kts | 357° |
| 2026-04-30 20:30 | 46.97136 | 8.75961 | 31933 ft | 432 kts | 357° |
| 2026-04-30 20:30 | 47.06050 | 8.74536 | 32965 ft | 429 kts | 357° |
| 2026-04-30 20:31 | 47.14925 | 8.73094 | 34073 ft | 425 kts | 357° |
| 2026-04-30 20:32 | 47.23782 | 8.71959 | 34273 ft | 423 kts | 5° |
| 2026-04-30 20:32 | 47.29526 | 8.73284 | 34291 ft | 417 kts | 14° |
| 2026-04-30 20:33 | 47.38052 | 8.75789 | 34294 ft | 416 kts | 13° |
| 2026-04-30 20:34 | 47.46553 | 8.78206 | 34294 ft | 415 kts | 13° |
| 2026-04-30 20:35 | 47.55065 | 8.80622 | 34300 ft | 416 kts | 13° |
| 2026-04-30 20:35 | 47.63534 | 8.83437 | 34288 ft | 416 kts | 18° |
| 2026-04-30 20:36 | 47.69110 | 8.85793 | 34292 ft | 417 kts | 18° |
| 2026-04-30 20:37 | 47.77526 | 8.89238 | 34290 ft | 419 kts | 17° |
| 2026-04-30 20:37 | 47.83315 | 8.90484 | 34301 ft | 422 kts | 8° |
| 2026-04-30 20:38 | 47.89171 | 8.91250 | 34309 ft | 423 kts | 8° |
| 2026-04-30 20:38 | 47.95031 | 8.92068 | 34304 ft | 422 kts | 8° |
| 2026-04-30 20:39 | 48.03820 | 8.93371 | 34316 ft | 424 kts | 8° |
| 2026-04-30 20:40 | 48.12643 | 8.94692 | 34306 ft | 425 kts | 8° |
| 2026-04-30 20:40 | 48.18534 | 8.95576 | 34315 ft | 426 kts | 8° |
| 2026-04-30 20:41 | 48.27387 | 8.96923 | 34317 ft | 427 kts | 8° |
| 2026-04-30 20:41 | 48.33301 | 8.97825 | 34314 ft | 426 kts | 8° |
| 2026-04-30 20:42 | 48.39192 | 8.98726 | 34319 ft | 426 kts | 8° |
| 2026-04-30 20:43 | 48.48028 | 9.00077 | 34316 ft | 425 kts | 8° |
| 2026-04-30 20:43 | 48.53876 | 9.00955 | 34321 ft | 424 kts | 8° |
| 2026-04-30 20:44 | 48.62673 | 9.02259 | 34321 ft | 424 kts | 6° |
| 2026-04-30 20:45 | 48.74517 | 9.01662 | 34317 ft | 426 kts | 0° |
| 2026-04-30 20:45 | 48.80429 | 9.01215 | 34322 ft | 426 kts | 1° |
| 2026-04-30 20:46 | 48.92276 | 9.00436 | 34324 ft | 426 kts | 1° |
| 2026-04-30 20:47 | 49.01163 | 8.99873 | 34322 ft | 427 kts | 1° |
| 2026-04-30 20:48 | 49.10073 | 8.99305 | 34323 ft | 428 kts | 1° |
| 2026-04-30 20:48 | 49.16027 | 8.98924 | 34323 ft | 428 kts | 1° |
| 2026-04-30 20:49 | 49.21981 | 8.98541 | 34328 ft | 429 kts | 1° |
| 2026-04-30 20:50 | 49.30923 | 8.97965 | 34331 ft | 429 kts | 0° |
| 2026-04-30 20:50 | 49.36887 | 8.97580 | 34337 ft | 429 kts | 0° |
| 2026-04-30 20:51 | 49.42851 | 8.97193 | 34328 ft | 429 kts | 0° |
| 2026-04-30 20:51 | 49.51791 | 8.96613 | 34328 ft | 429 kts | 0° |
| 2026-04-30 20:52 | 49.57760 | 8.96224 | 34345 ft | 429 kts | 0° |
| 2026-04-30 20:53 | 49.66729 | 8.95638 | 34342 ft | 430 kts | 0° |
| 2026-04-30 20:53 | 49.72670 | 8.95249 | 34346 ft | 431 kts | 0° |
| 2026-04-30 20:54 | 49.81679 | 8.94656 | 34352 ft | 432 kts | 0° |
| 2026-04-30 20:55 | 49.90689 | 8.94061 | 34350 ft | 432 kts | 0° |
| 2026-04-30 20:55 | 49.96695 | 8.93664 | 34348 ft | 432 kts | 0° |
| 2026-04-30 20:56 | 50.05693 | 8.93066 | 34353 ft | 432 kts | 0° |
| 2026-04-30 20:57 | 50.14690 | 8.92466 | 34355 ft | 431 kts | 0° |
| 2026-04-30 20:57 | 50.20685 | 8.92065 | 34354 ft | 431 kts | 0° |
| 2026-04-30 20:58 | 50.29664 | 8.91463 | 34366 ft | 431 kts | 0° |
| 2026-04-30 20:58 | 50.35653 | 8.91060 | 34370 ft | 431 kts | 360° |
| 2026-04-30 20:59 | 50.44639 | 8.90453 | 34377 ft | 431 kts | 360° |
| 2026-04-30 21:00 | 50.50613 | 8.89704 | 34362 ft | 434 kts | 349° |
| 2026-04-30 21:00 | 50.56195 | 8.86006 | 34383 ft | 441 kts | 328° |
| 2026-04-30 21:01 | 50.63532 | 8.77167 | 34384 ft | 444 kts | 325° |
| 2026-04-30 21:02 | 50.70901 | 8.68299 | 34059 ft | 450 kts | 326° |
| 2026-04-30 21:02 | 50.73413 | 8.65288 | 33372 ft | 454 kts | 325° |
| 2026-04-30 21:02 | 50.75921 | 8.62270 | 32664 ft | 452 kts | 325° |
| 2026-04-30 21:02 | 50.78398 | 8.59275 | 32178 ft | 445 kts | 325° |
| 2026-04-30 21:03 | 50.80811 | 8.56351 | 31625 ft | 442 kts | 325° |
| 2026-04-30 21:03 | 50.83238 | 8.53404 | 31098 ft | 437 kts | 325° |
| 2026-04-30 21:03 | 50.85670 | 8.50447 | 30577 ft | 433 kts | 325° |
| 2026-04-30 21:03 | 50.88017 | 8.47591 | 29985 ft | 430 kts | 325° |
| 2026-04-30 21:04 | 50.90369 | 8.44724 | 29451 ft | 425 kts | 325° |
| 2026-04-30 21:04 | 50.92693 | 8.41889 | 28923 ft | 420 kts | 325° |
| 2026-04-30 21:04 | 50.96545 | 8.37180 | 28056 ft | 414 kts | 325° |
| 2026-04-30 21:05 | 50.99546 | 8.33505 | 27394 ft | 409 kts | 325° |
| 2026-04-30 21:05 | 51.01067 | 8.31640 | 27048 ft | 408 kts | 325° |
| 2026-04-30 21:05 | 51.04031 | 8.28003 | 26388 ft | 406 kts | 325° |
| 2026-04-30 21:05 | 51.05537 | 8.26152 | 26066 ft | 405 kts | 325° |
| 2026-04-30 21:06 | 51.07762 | 8.23416 | 25583 ft | 404 kts | 325° |
| 2026-04-30 21:06 | 51.09984 | 8.20679 | 25093 ft | 404 kts | 325° |
| 2026-04-30 21:06 | 51.12202 | 8.17943 | 24605 ft | 402 kts | 326° |
| 2026-04-30 21:06 | 51.14382 | 8.15251 | 24106 ft | 401 kts | 326° |
| 2026-04-30 21:07 | 51.16583 | 8.12529 | 23560 ft | 400 kts | 326° |
| 2026-04-30 21:07 | 51.18769 | 8.09822 | 23024 ft | 397 kts | 325° |
| 2026-04-30 21:07 | 51.20938 | 8.07135 | 22524 ft | 394 kts | 325° |
| 2026-04-30 21:07 | 51.23094 | 8.04458 | 22059 ft | 391 kts | 325° |
| 2026-04-30 21:08 | 51.25230 | 8.01803 | 21576 ft | 389 kts | 325° |
| 2026-04-30 21:08 | 51.27364 | 7.99147 | 21101 ft | 386 kts | 325° |
| 2026-04-30 21:08 | 51.29473 | 7.96520 | 20644 ft | 384 kts | 325° |
| 2026-04-30 21:08 | 51.31578 | 7.93895 | 20181 ft | 382 kts | 325° |
| 2026-04-30 21:09 | 51.33690 | 7.91258 | 19722 ft | 380 kts | 325° |
| 2026-04-30 21:09 | 51.35745 | 7.88689 | 19274 ft | 379 kts | 325° |
| 2026-04-30 21:09 | 51.37812 | 7.86102 | 18810 ft | 377 kts | 325° |
| 2026-04-30 21:09 | 51.39877 | 7.83515 | 18321 ft | 376 kts | 325° |
| 2026-04-30 21:10 | 51.41929 | 7.80940 | 17825 ft | 374 kts | 325° |
| 2026-04-30 21:10 | 51.43974 | 7.78372 | 17360 ft | 372 kts | 325° |
| 2026-04-30 21:10 | 51.46007 | 7.75816 | 16903 ft | 371 kts | 325° |
| 2026-04-30 21:10 | 51.48029 | 7.73271 | 16454 ft | 368 kts | 325° |
| 2026-04-30 21:11 | 51.50042 | 7.70733 | 16013 ft | 367 kts | 325° |
| 2026-04-30 21:11 | 51.52043 | 7.68209 | 15568 ft | 365 kts | 324° |
| 2026-04-30 21:11 | 51.54035 | 7.65692 | 15133 ft | 364 kts | 324° |
| 2026-04-30 21:11 | 51.56025 | 7.63176 | 14698 ft | 363 kts | 324° |
| 2026-04-30 21:12 | 51.58002 | 7.60673 | 14260 ft | 362 kts | 324° |
| 2026-04-30 21:12 | 51.59980 | 7.58166 | 13768 ft | 362 kts | 324° |
| 2026-04-30 21:12 | 51.61954 | 7.55660 | 13309 ft | 360 kts | 324° |
| 2026-04-30 21:12 | 51.63917 | 7.53167 | 12862 ft | 358 kts | 324° |
| 2026-04-30 21:13 | 51.65865 | 7.50689 | 12428 ft | 356 kts | 324° |
| 2026-04-30 21:13 | 51.67802 | 7.48221 | 12001 ft | 354 kts | 324° |
| 2026-04-30 21:13 | 51.69730 | 7.45764 | 11580 ft | 352 kts | 324° |
| 2026-04-30 21:13 | 51.71647 | 7.43318 | 11159 ft | 351 kts | 323° |
| 2026-04-30 21:14 | 51.73551 | 7.40884 | 10876 ft | 344 kts | 323° |
| 2026-04-30 21:14 | 51.75397 | 7.38520 | 10718 ft | 334 kts | 323° |
| 2026-04-30 21:14 | 51.77190 | 7.36223 | 10575 ft | 324 kts | 323° |
| 2026-04-30 21:14 | 51.78931 | 7.33990 | 10437 ft | 315 kts | 323° |
| 2026-04-30 21:15 | 51.80617 | 7.31826 | 10365 ft | 303 kts | 323° |
| 2026-04-30 21:15 | 51.82256 | 7.29723 | 9906 ft | 306 kts | 323° |
| 2026-04-30 21:15 | 51.83919 | 7.27587 | 9525 ft | 303 kts | 323° |
| 2026-04-30 21:15 | 51.85555 | 7.25483 | 9157 ft | 298 kts | 323° |
| 2026-04-30 21:16 | 51.87173 | 7.23399 | 8847 ft | 296 kts | 323° |
| 2026-04-30 21:16 | 51.88785 | 7.21321 | 8517 ft | 295 kts | 323° |
| 2026-04-30 21:16 | 51.90387 | 7.19255 | 8200 ft | 294 kts | 323° |
| 2026-04-30 21:16 | 51.91984 | 7.17193 | 7877 ft | 293 kts | 323° |
| 2026-04-30 21:17 | 51.93575 | 7.15136 | 7556 ft | 293 kts | 323° |
| 2026-04-30 21:17 | 51.95244 | 7.13274 | 7215 ft | 290 kts | 340° |
| 2026-04-30 21:17 | 51.97180 | 7.12731 | 6911 ft | 280 kts | 9° |
| 2026-04-30 21:17 | 51.99018 | 7.13522 | 6595 ft | 271 kts | 31° |
| 2026-04-30 21:18 | 52.00579 | 7.15183 | 6271 ft | 266 kts | 41° |
| 2026-04-30 21:18 | 52.02005 | 7.17003 | 6021 ft | 260 kts | 47° |
| 2026-04-30 21:18 | 52.03007 | 7.19294 | 5797 ft | 247 kts | 69° |
| 2026-04-30 21:18 | 52.03691 | 7.21859 | 5478 ft | 245 kts | 72° |
| 2026-04-30 21:19 | 52.04274 | 7.24427 | 5313 ft | 238 kts | 75° |
| 2026-04-30 21:19 | 52.04794 | 7.26898 | 5241 ft | 226 kts | 76° |
| 2026-04-30 21:19 | 52.05286 | 7.29285 | 4959 ft | 220 kts | 76° |
| 2026-04-30 21:19 | 52.05766 | 7.31613 | 4659 ft | 215 kts | 76° |
| 2026-04-30 21:20 | 52.06236 | 7.33887 | 4381 ft | 210 kts | 76° |
| 2026-04-30 21:20 | 52.06695 | 7.36101 | 4105 ft | 205 kts | 76° |
| 2026-04-30 21:20 | 52.07146 | 7.38273 | 3830 ft | 200 kts | 77° |
| 2026-04-30 21:20 | 52.07586 | 7.40387 | 3563 ft | 195 kts | 77° |
| 2026-04-30 21:21 | 52.08014 | 7.42447 | 3311 ft | 188 kts | 77° |
| 2026-04-30 21:21 | 52.08426 | 7.44421 | 3071 ft | 181 kts | 78° |
| 2026-04-30 21:21 | 52.09203 | 7.48151 | 2567 ft | 167 kts | 78° |
| 2026-04-30 21:22 | 52.09566 | 7.49890 | 2361 ft | 158 kts | 78° |
| 2026-04-30 21:22 | 52.10603 | 7.54862 | 1748 ft | 156 kts | 78° |
| 2026-04-30 21:23 | 52.10956 | 7.56548 | 1528 ft | 157 kts | 78° |
| 2026-04-30 21:23 | 52.11306 | 7.58218 | 1316 ft | 155 kts | 77° |
| 2026-04-30 21:23 | 52.11947 | 7.61274 | 937 ft | 143 kts | 75° |
| 2026-04-30 21:24 | 52.12267 | 7.62800 | 733 ft | 143 kts | 73° |
| 2026-04-30 21:24 | 52.12577 | 7.64316 | 579 ft | 139 kts | 73° |
| 2026-04-30 21:24 | 52.12897 | 7.65809 | 377 ft | 141 kts | 71° |
| 2026-04-30 21:24 | 52.13226 | 7.67357 | 198 ft | 145 kts | 71° |
| 2026-04-30 21:25 | 52.13684 | 7.69511 | 168 ft | 41 kts | 72° |
| 2026-04-30 21:25 | 52.13750 | 7.69839 | 167 ft | 24 kts | 72° |
| 2026-04-30 21:25 | 52.13717 | 7.70024 | 166 ft | 17 kts | 156° |
| 2026-04-30 21:26 | 52.13577 | 7.69844 | 166 ft | 14 kts | 250° |
| 2026-04-30 21:26 | 52.13544 | 7.69698 | 167 ft | 13 kts | 250° |
| 2026-04-30 21:27 | 52.13487 | 7.69420 | 167 ft | 13 kts | 252° |
| 2026-04-30 21:27 | 52.13458 | 7.69283 | 167 ft | 14 kts | 242° |
| 2026-04-30 21:27 | 52.13374 | 7.69255 | 166 ft | 14 kts | 161° |
| 2026-04-30 21:28 | 52.13234 | 7.69393 | 166 ft | 7 kts | 142° |
| 2026-04-30 21:28 | 52.13205 | 7.69392 | 167 ft | 5 kts | 192° |